Map

Track Data

SID SEASON NUMBER BASIN SUBBASIN NAME ISO_TIME NATURE LAT LON WMO_WIND WMO_PRES WMO_AGENCY TRACK_TYPE DIST2LAND LANDFALL IFLAG USA_AGENCY USA_ATCF_ID USA_LAT USA_LON USA_RECORD USA_STATUS USA_WIND USA_PRES USA_SSHS USA_R34_NE USA_R34_SE USA_R34_SW USA_R34_NW USA_R50_NE USA_R50_SE USA_R50_SW USA_R50_NW USA_R64_NE USA_R64_SE USA_R64_SW USA_R64_NW USA_POCI USA_ROCI USA_RMW USA_EYE TOKYO_LAT TOKYO_LON TOKYO_GRADE TOKYO_WIND TOKYO_PRES TOKYO_R50_DIR TOKYO_R50_LONG TOKYO_R50_SHORT TOKYO_R30_DIR TOKYO_R30_LONG TOKYO_R30_SHORT TOKYO_LAND CMA_LAT CMA_LON CMA_CAT CMA_WIND CMA_PRES HKO_LAT HKO_LON HKO_CAT HKO_WIND HKO_PRES NEWDELHI_LAT NEWDELHI_LON NEWDELHI_GRADE NEWDELHI_WIND NEWDELHI_PRES NEWDELHI_CI NEWDELHI_DP NEWDELHI_POCI REUNION_LAT REUNION_LON REUNION_TYPE REUNION_WIND REUNION_PRES REUNION_TNUM REUNION_CI REUNION_RMW REUNION_R34_NE REUNION_R34_SE REUNION_R34_SW REUNION_R34_NW REUNION_R50_NE REUNION_R50_SE REUNION_R50_SW REUNION_R50_NW REUNION_R64_NE REUNION_R64_SE REUNION_R64_SW REUNION_R64_NW BOM_LAT BOM_LON BOM_TYPE BOM_WIND BOM_PRES BOM_TNUM BOM_CI BOM_RMW BOM_R34_NE BOM_R34_SE BOM_R34_SW BOM_R34_NW BOM_R50_NE BOM_R50_SE BOM_R50_SW BOM_R50_NW BOM_R64_NE BOM_R64_SE BOM_R64_SW BOM_R64_NW BOM_ROCI BOM_POCI BOM_EYE BOM_POS_METHOD BOM_PRES_METHOD NADI_LAT NADI_LON NADI_CAT NADI_WIND NADI_PRES WELLINGTON_LAT WELLINGTON_LON WELLINGTON_WIND WELLINGTON_PRES DS824_LAT DS824_LON DS824_STAGE DS824_WIND DS824_PRES TD9636_LAT TD9636_LON TD9636_STAGE TD9636_WIND TD9636_PRES TD9635_LAT TD9635_LON TD9635_WIND TD9635_PRES TD9635_ROCI NEUMANN_LAT NEUMANN_LON NEUMANN_CLASS NEUMANN_WIND NEUMANN_PRES MLC_LAT MLC_LON MLC_CLASS MLC_WIND MLC_PRES USA_GUST BOM_GUST BOM_GUST_PER REUNION_GUST REUNION_GUST_PER USA_SEAHGT USA_SEARAD_NE USA_SEARAD_SE USA_SEARAD_SW USA_SEARAD_NW STORM_SPEED STORM_DIR
1963090S19152 1963 35 SP EA NOT_NAMED 1963-03-30 12:00:00 TS -19.1000 152.000 main 360 311 O________OO___ jtwc_sh SH451963 -19.1000 152.000 -1 -19.1000 152.000 TC -19.1000 152.000 2 22 158
1963090S19152 1963 35 SP EA NOT_NAMED 1963-03-30 15:00:00 TS -20.1225 152.440 main 311 273 P________PP___ SH451963 -20.1728 152.434 -1 -20.1728 152.434 TC -20.0221 152.453 2 21 156
1963090S19152 1963 35 SP EA NOT_NAMED 1963-03-30 18:00:00 TS -21.0284 152.909 main 274 267 O________OP___ jtwc_sh SH451963 -21.1000 152.900 -1 -21.1000 152.900 TC -20.8851 152.926 2 19 150
1963090S19152 1963 35 SP EA NOT_NAMED 1963-03-30 21:00:00 TS -21.7233 153.426 main 282 282 P________PP___ SH451963 -21.7697 153.420 -1 -21.7697 153.420 TC -21.6306 153.437 2 16 144
1963090S19152 1963 35 SP EA NOT_NAMED 1963-03-30 23:00:00 TS -22.0826 153.740 1006 bom main 296 294 P_____O__PP___ SH451963 -22.0801 153.800 -1 -22.3000 153.000 1006 -22.0801 153.800 TC -22.0334 153.806 2 12 148
1963090S19152 1963 35 SP EA NOT_NAMED 1963-03-31 00:00:00 TS -22.2410 153.781 main 294 266 O_____P__OO_O_ jtwc_sh SH451963 -22.2000 154.000 -1 -22.3777 153.094 1005 -22.2000 154.000 TC -22.2000 154.000 2 -22.3000 153.200 TC 15 1006 9 137
1963090S19152 1963 35 SP EA NOT_NAMED 1963-03-31 03:00:00 TS -22.5282 154.183 main 272 260 P_____P__PP_P_ SH451963 -22.4525 154.643 -1 -22.6103 153.379 1004 -22.4525 154.643 TC -22.5576 154.620 2 -22.5627 153.505 TC 20 1004 9 124
1963090S19152 1963 35 SP EA NOT_NAMED 1963-03-31 06:00:00 TS -22.7317 154.565 main 269 259 O_____P__OP_O_ jtwc_sh SH451963 -22.6000 155.300 -1 -22.8419 153.671 1002 -22.6000 155.300 TC -22.7582 155.269 2 -22.8000 153.800 TC 25 1003 8 119
1963090S19152 1963 35 SP EA NOT_NAMED 1963-03-31 09:00:00 TS -22.9327 154.960 main 273 265 P_____P__PP_P_ SH451963 -22.7924 155.930 -1 -23.0720 153.977 1001 -22.7924 155.930 TC -22.8796 155.908 2 -22.9998 154.085 TC 27 1001 9 117
1963090S19152 1963 35 SP EA NOT_NAMED 1963-03-31 12:00:00 TS -23.1333 155.417 1000 bom main 285 285 O_____O__OO_O_ jtwc_sh SH451963 -23.0000 156.500 -1 -23.3000 154.300 1000 -23.0000 156.500 TC -23.0000 156.500 2 -23.2000 154.400 TC 30 1000 9 118
1963090S19152 1963 35 SP EA NOT_NAMED 1963-03-31 15:00:00 TS -23.3748 155.846 main 297 297 P_____P__PP_P_ SH451963 -23.2422 156.973 -1 -23.5311 154.670 1000 -23.2422 156.973 TC -23.2462 156.981 2 -23.4345 154.733 TC 30 1000 10 121
1963090S19152 1963 35 SP EA NOT_NAMED 1963-03-31 17:00:00 TS -23.5457 156.152 1000 bom main 327 323 P_____O__PP_P_ SH451963 -23.4139 157.258 -1 -23.7000 155.000 1000 -23.4139 157.258 TC -23.4184 157.273 2 -23.6080 155.022 TC 30 1000 10 121
1963090S19152 1963 35 SP EA NOT_NAMED 1963-03-31 18:00:00 TS -23.6338 156.319 main 332 332 O_____P__OP_O_ jtwc_sh SH451963 -23.5000 157.400 -1 -23.7978 155.200 1000 -23.5000 157.400 TC -23.5052 157.416 2 -23.7000 155.200 TC 30 1000 11 118
1963090S19152 1963 35 SP EA NOT_NAMED 1963-03-31 21:00:00 TS -23.9083 156.886 main 374 374 P_____P__PP_P_ SH451963 -23.7572 157.835 -1 -24.1092 155.933 1000 -23.7572 157.835 TC -23.7618 157.843 2 -24.0223 155.867 TC 30 1000 12 116
1963090S19152 1963 35 SP EA NOT_NAMED 1963-03-31 23:00:00 TS -24.0805 157.313 1000 bom main 406 406 P_____O__PP_P_ SH451963 -23.9222 158.139 -1 -24.3000 156.500 1000 -23.9222 158.139 TC -23.9237 158.142 2 -24.2200 156.409 TC 30 1000 13 113
1963090S19152 1963 35 SP EA NOT_NAMED 1963-04-01 00:00:00 TS -24.1578 157.539 main 423 423 O_____P__OO_O_ jtwc_sh SH451963 -24.0000 158.300 -1 -24.3797 156.794 999 -24.0000 158.300 TC -24.0000 158.300 2 -24.3000 156.700 TC 30 1000 14 107
1963090S19152 1963 35 SP EA NOT_NAMED 1963-04-01 03:00:00 TS -24.3504 158.271 main 499 499 P_____P__PP_P_ SH451963 -24.2149 158.828 -1 -24.5726 157.755 999 -24.2149 158.828 TC -24.2127 158.835 2 -24.4223 157.613 TC 30 999 14 104
1963090S19152 1963 35 SP EA NOT_NAMED 1963-04-01 06:00:00 TS -24.5049 159.052 main 577 577 O_____P__OP_O_ jtwc_sh SH451963 -24.4000 159.400 -1 -24.7018 158.775 998 -24.4000 159.400 TC -24.4022 159.405 2 -24.5000 158.600 TC 30 999 15 102
1963090S19152 1963 35 SP EA NOT_NAMED 1963-04-01 09:00:00 TS -24.6473 159.849 main 632 589 P_____P__PP_P_ SH451963 -24.5648 159.993 -1 -24.7760 159.778 998 -24.5648 159.993 TC -24.5656 159.998 2 -24.6728 159.637 TC 32 998 15 100
1963090S19152 1963 35 SP MM NOT_NAMED 1963-04-01 11:00:00 TS -24.7220 160.366 998 bom main 589 573 P_____O__PP_P_ SH451963 -24.6582 160.397 -1 -24.8000 160.400 998 -24.6582 160.397 TC -24.6586 160.399 2 -24.7704 160.298 TC 34 998 14 99
1963090S19152 1963 35 SP MM NOT_NAMED 1963-04-01 12:00:00 TS -24.7535 160.609 main 581 536 O_____P__OO_O_ jtwc_sh SH451963 -24.7000 160.600 -1 -24.8213 160.656 997 -24.7000 160.600 TC -24.7000 160.600 2 -24.8000 160.600 TC 35 998 12 96
1963090S19152 1963 35 SP MM NOT_NAMED 1963-04-01 15:00:00 TS -24.8113 161.274 main 528 488 P_____P__PP_P_ SH451963 -24.8148 161.200 -1 -24.8583 161.355 997 -24.8148 161.200 TC -24.8051 161.129 2 -24.7714 161.346 TC 35 997 12 94
1963090S19152 1963 35 SP MM NOT_NAMED 1963-04-01 18:00:00 TS -24.8322 161.906 main 488 452 O_____P__OP_O_ jtwc_sh SH451963 -24.9000 161.800 -1 -24.8483 162.011 996 -24.9000 161.800 TC -24.8831 161.674 2 -24.7000 162.000 TC 35 997 11 92
1963090S19152 1963 35 SP MM NOT_NAMED 1963-04-01 21:00:00 TS -24.8457 162.517 main 452 431 P_____P__PP_P_ SH451963 -24.9490 162.348 -1 -24.7815 162.694 996 -24.9490 162.348 TC -24.9449 162.282 2 -24.7217 162.669 TC 35 996 11 91
1963090S19152 1963 35 SP MM NOT_NAMED 1963-04-01 23:00:00 TS -24.8502 162.955 996 bom main 436 431 P_____O__PP_P_ SH451963 -24.9796 162.760 -1 -24.7000 163.200 996 4 -24.9796 162.760 TC -24.9818 162.746 2 -24.7198 163.143 TC 35 996 12 92
1963090S19152 1963 35 SP MM NOT_NAMED 1963-04-02 00:00:00 TS -24.8671 163.176 main 426 379 O_____P__OO_O_ jtwc_sh SH451963 -25.0000 163.000 -1 -24.6471 163.476 996 -25.0000 163.000 TC -25.0000 163.000 2 -24.7000 163.400 TC 35 996 15 92
1963090S19152 1963 35 SP MM NOT_NAMED 1963-04-02 03:00:00 TS -24.8774 164.031 main 379 338 P_____P__PP_P_ SH451963 -25.1075 163.882 -1 -24.4501 164.372 996 -25.1075 163.882 TC -25.0761 163.917 2 -24.4325 164.273 TC 35 996 16 92
1963090S19152 1963 35 SP MM NOT_NAMED 1963-04-02 05:00:00 TS -24.9059 164.668 996 bom main 338 328 P_____O__PP_P_ SH451963 -25.1753 164.553 -1 -24.3000 165.000 996 -25.1753 164.553 TC -25.1214 164.591 2 -24.3029 164.891 TC 35 996 17 95
1963090S19152 1963 35 SP MM NOT_NAMED 1963-04-02 06:00:00 TS -24.9603 164.985 main 333 310 O________OP_O_ jtwc_sh SH451963 -25.2000 164.900 -1 -25.2000 164.900 TC -25.1412 164.939 2 -24.3000 165.200 TC 35 996 18 99
1963090S19152 1963 35 SP MM NOT_NAMED 1963-04-02 09:00:00 TS -25.0895 166.009 main 310 302 P________PP_P_ SH451963 -25.2227 165.965 -1 -25.2227 165.965 TC -25.1853 165.992 2 -24.7272 166.112 TC 37 18 97
1963090S19152 1963 35 SP MM NOT_NAMED 1963-04-02 12:00:00 TS -25.2000 167.000 main 313 313 O________OO_O_ jtwc_sh SH451963 -25.2000 167.000 -1 -25.2000 167.000 TC -25.2000 167.000 2 -25.2000 167.000 TC 40 17 93
1963090S19152 1963 35 SP MM NOT_NAMED 1963-04-02 15:00:00 TS -25.1786 167.874 main 329 329 P________PP_P_ SH451963 -25.1567 167.895 -1 -25.1567 167.895 TC -25.1769 167.891 2 -25.2243 167.816 TC 37 15 86
1963090S19152 1963 35 SP MM NOT_NAMED 1963-04-02 18:00:00 TS -25.1070 168.680 main 352 352 O________OP_O_ jtwc_sh SH451963 -25.1000 168.700 -1 -25.1000 168.700 TC -25.1279 168.721 2 -25.1000 168.600 TC 35 15 85
1963090S19152 1963 35 SP MM NOT_NAMED 1963-04-02 21:00:00 TS -25.0536 169.474 main 401 399 P________PP_P_ SH451963 -25.0497 169.487 -1 -25.0497 169.487 TC -25.0650 169.490 2 -25.0500 169.430 TC 35 14 86
1963090S19152 1963 35 SP MM NOT_NAMED 1963-04-03 00:00:00 TS -25.0000 170.200 main 444 444 O________OO_O_ jtwc_sh SH451963 -25.0000 170.200 -1 -25.0000 170.200 TC -25.0000 170.200 2 -25.0000 170.200 TC 35 12 85
1963090S19152 1963 35 SP MM NOT_NAMED 1963-04-03 03:00:00 TS -24.9470 170.833 main 483 483 P________PP_P_ SH451963 -24.9495 170.822 -1 -24.9495 170.822 TC -24.9398 170.857 2 -24.9494 170.830 TC 35 11 85
1963090S19152 1963 35 SP MM NOT_NAMED 1963-04-03 06:00:00 TS -24.8956 171.415 main 534 534 O________OP_O_ jtwc_sh SH451963 -24.9000 171.400 -1 -24.9000 171.400 TC -24.8824 171.460 2 -24.9000 171.400 TC 35 11 85
1963090S19152 1963 35 SP MM NOT_NAMED 1963-04-03 09:00:00 TS -24.8458 172.008 main 580 580 P________PP_P_ SH451963 -24.8498 172.000 -1 -24.8498 172.000 TC -24.8339 172.033 2 -24.8498 172.000 TC 35 11 85
1963090S19152 1963 35 SP MM NOT_NAMED 1963-04-03 12:00:00 TS -24.8000 172.600 main 635 635 O________OO_O_ jtwc_sh SH451963 -24.8000 172.600 -1 -24.8000 172.600 TC -24.8000 172.600 2 -24.8000 172.600 TC 35 11 85
1963090S19152 1963 35 SP MM NOT_NAMED 1963-04-03 15:00:00 TS -24.7414 173.208 main 686 686 P________PP_P_ SH451963 -24.7348 173.200 -1 -24.7348 173.200 TC -24.7614 173.233 2 -24.7348 173.200 TC 35 11 85
1963090S19152 1963 35 SP MM NOT_NAMED 1963-04-03 18:00:00 TS -24.7101 173.815 main 743 743 O________OP_O_ jtwc_sh SH451963 -24.7000 173.800 -1 -24.7000 173.800 TC -24.7403 173.860 2 -24.7000 173.800 TC 35 11 90
1963090S19152 1963 35 SP MM NOT_NAMED 1963-04-03 21:00:00 TS -24.7329 174.433 main 796 785 P________PP_P_ SH451963 -24.7275 174.422 -1 -24.7275 174.422 TC -24.7490 174.458 2 -24.7276 174.430 TC 35 11 95
1963090S19152 1963 35 SP MM NOT_NAMED 1963-04-04 00:00:00 TS -24.8000 175.000 main 785 774 O________OO_O_ jtwc_sh SH451963 -24.8000 175.000 -1 -24.8000 175.000 TC -24.8000 175.000 2 -24.8000 175.000 TC 35 10 99
1963090S19152 1963 35 SP MM NOT_NAMED 1963-04-04 03:00:00 TS -24.8813 175.470 main 778 772 P________PP_P_ SH451963 -24.8773 175.488 -1 -24.8773 175.488 TC -24.8937 175.473 2 -24.8771 175.430 TC 35 8 105
1963090S19152 1963 35 SP MM NOT_NAMED 1963-04-04 06:00:00 TS -25.0078 175.872 main 777 774 O________OP_O_ jtwc_sh SH451963 -25.0000 175.900 -1 -25.0000 175.900 TC -25.0314 175.890 2 -25.0000 175.800 TC 35 8 113
1963090S19152 1963 35 SP MM NOT_NAMED 1963-04-04 09:00:00 TS -25.1877 176.259 main 788 786 P________PP_P_ SH451963 -25.1849 176.280 -1 -25.1849 176.280 TC -25.2034 176.261 2 -25.1775 176.215 TC 35 8 121
1963090S19152 1963 35 SP MM NOT_NAMED 1963-04-04 12:00:00 TS -25.4000 176.600 main 805 803 O________OO_O_ jtwc_sh SH451963 -25.4000 176.600 -1 -25.4000 176.600 TC -25.4000 176.600 2 -25.4000 176.600 TC 35 7 127
1963090S19152 1963 35 SP MM NOT_NAMED 1963-04-04 15:00:00 TS -25.6092 176.876 main 822 822 P________PP_P_ SH451963 -25.5923 176.850 -1 -25.5923 176.850 TC -25.6022 176.889 2 -25.6498 176.915 TC 35 7 132
1963090S19152 1963 35 SP MM NOT_NAMED 1963-04-04 18:00:00 TS -25.8314 177.139 main 842 841 O________OP_O_ jtwc_sh SH451963 -25.8000 177.100 -1 -25.8000 177.100 TC -25.8257 177.156 2 -25.9000 177.200 TC 35 7 132
1963090S19152 1963 35 SP MM NOT_NAMED 1963-04-04 21:00:00 TS -26.0651 177.430 main 873 872 P________PP_P_ SH451963 -26.0497 177.405 -1 -26.0497 177.405 TC -26.0614 177.445 2 -26.0996 177.463 TC 35 8 128
1963090S19152 1963 35 SP MM NOT_NAMED 1963-04-05 00:00:00 TS -26.3000 177.800 main 894 894 O________OO_O_ jtwc_sh SH451963 -26.3000 177.800 -1 -26.3000 177.800 TC -26.3000 177.800 2 -26.3000 177.800 TC 35 9 120
1963090S19152 1963 35 SP MM NOT_NAMED 1963-04-05 03:00:00 TS -26.5241 178.310 main 916 916 P________PP_P_ SH451963 -26.5001 178.320 -1 -26.5001 178.320 TC -26.5460 178.285 2 -26.5502 178.312 TC 35 11 115
1963090S19152 1963 35 SP MM NOT_NAMED 1963-04-05 06:00:00 TS -26.7471 178.885 main 941 941 O________OP_O_ jtwc_sh SH451963 -26.7000 178.900 -1 -26.7000 178.900 TC -26.7884 178.839 2 -26.8000 178.900 TC 35 11 114
1963090S19152 1963 35 SP MM NOT_NAMED 1963-04-05 09:00:00 TS -26.9853 179.449 main 980 980 P________PP_P_ SH451963 -26.9574 179.457 -1 -26.9574 179.457 TC -27.0115 179.423 2 -27.0149 179.458 TC 35 11 114
1963090S19152 1963 35 SP MM NOT_NAMED 1963-04-05 12:00:00 TS -27.2000 180.000 main 1011 1011 O________OO_O_ jtwc_sh SH451963 -27.2000 180.000 -1 -27.2000 180.000 TC -27.2000 180.000 2 -27.2000 180.000 TC 35 10 112
1963090S19152 1963 35 SP MM NOT_NAMED 1963-04-05 15:00:00 TS -27.3688 180.516 main 1044 1044 P________PP_P_ SH451963 -27.3797 -179.492 -1 -27.3797 -179.492 TC -27.3437 -179.460 2 -27.3722 -179.492 TC 30 9 108
1963090S19152 1963 35 SP MM NOT_NAMED 1963-04-05 18:00:00 TS -27.4876 181.011 main 1067 1067 O________OP_O_ jtwc_sh SH451963 -27.5000 -179.000 -1 -27.5000 181.000 TC -27.4502 -178.954 2 -27.5000 -179.000 TC 25 9 102
1963090S19152 1963 35 SP MM NOT_NAMED 1963-04-05 21:00:00 TS -27.5576 181.505 main 1092 1092 P________PP_P_ SH451963 -27.5654 -178.503 -1 -27.5654 -178.503 TC -27.5317 -178.472 2 -27.5679 -178.502 TC 22 9 97
1963090S19152 1963 35 SP MM NOT_NAMED 1963-04-06 00:00:00 TS -27.6000 182.000 main 1109 O________OO_O_ jtwc_sh SH451963 -27.6000 -178.000 -1 -27.6000 182.000 TC -27.6000 -178.000 2 -27.6000 -178.000 TC 20 9 96

Digital Typhoon Data and Search

About IBTrACS Database

This database is a web-friendly format of International Best Track Archive for Climate Stewardship (IBTrACS), a global best track data archive curated by NOAA dating back to 1842.

Updated: 2021-10-27